PWSweather.com
Personal Weather Stations
Station Observations
MARRWS
Allansford VictoriaAU 3277

Allansford VictoriaAU 3277

Lat: -38.4003683814149, Lon: 142.569826841354

Elevation: 36

Station Type: Fine Offset X7062

http://home.vicnet.net.au/~marr/Weather/

Latest ConditionsUpdated 6:40:03 AM GMT+10:10 Thursday, Apr 25, 2019
Currently Today's Max Today's Min Today's Average
Temperature 55.2°F12.9°C 56.3°F13.5°C 55.0°F12.8°C 55.5°F13.1°C
Dew Point 52.9°F11.6°C 53.8°F12.1°C 51.3°F10.7°C 52.6°F11.4°C
Winds 2.7 mph SW4.3 kmh SW 5.1 mph -8.2 kmh - - 3.5 mph 5.6 kmh
Wind Gusts 5.4 mph8.7 kmh 9.8 mph15.8 kmh - -
Humidity 92% 93% 85% 90%
Pressure 30.03 in1016.9 mb 30.08 in1018.6 mb 30.02 in1016.6 mb -
Hour Temp Dew Point Humidity Winds Wind Gusts Pressure Precip Precip Rate Daily Precip Total
06:40 AM 55.2°F12.9°C 52.9°F11.6°C 92% 2.7 mph SW4.3 kmh SW 5.4 mph8.7 kmh 30.03 in1016.9 mb 0.00 in0.0 mm 0.00 in0.0 mm 0.00 in0.0 mm
06:30 AM 55.4°F13.0°C 53.4°F11.9°C 93% 3.0 mph SW4.8 kmh SW 6.9 mph11.1 kmh 30.03 in1016.9 mb 0.00 in0.0 mm 0.00 in0.0 mm 0.00 in0.0 mm
06:20 AM 55.4°F13.0°C 53.4°F11.9°C 93% 2.8 mph SW4.5 kmh SW 6.0 mph9.7 kmh 30.03 in1016.9 mb 0.00 in0.0 mm 0.00 in0.0 mm 0.00 in0.0 mm
06:10 AM 55.2°F12.9°C 52.9°F11.6°C 92% 2.3 mph SW3.7 kmh SW 6.0 mph9.7 kmh 30.03 in1016.9 mb 0.00 in0.0 mm 0.00 in0.0 mm 0.00 in0.0 mm
06:00 AM 55.4°F13.0°C 53.4°F11.9°C 93% 2.1 mph WSW3.4 kmh WSW 5.4 mph8.7 kmh 30.03 in1016.9 mb 0.00 in0.0 mm 0.00 in0.0 mm 0.00 in0.0 mm
05:50 AM 55.6°F13.1°C 53.6°F12.0°C 93% 2.4 mph SW3.9 kmh SW 6.0 mph9.7 kmh 30.02 in1016.6 mb 0.00 in0.0 mm 0.00 in0.0 mm 0.00 in0.0 mm
05:40 AM 55.4°F13.0°C 53.4°F11.9°C 93% 2.8 mph SSW4.5 kmh SSW 6.9 mph11.1 kmh 30.03 in1016.9 mb 0.00 in0.0 mm 0.00 in0.0 mm 0.00 in0.0 mm
05:30 AM 55.6°F13.1°C 53.3°F11.8°C 92% 3.1 mph SW5.0 kmh SW 7.6 mph12.2 kmh 30.03 in1016.9 mb 0.00 in0.0 mm 0.00 in0.0 mm 0.00 in0.0 mm
05:20 AM 55.8°F13.2°C 53.8°F12.1°C 93% 3.4 mph SW5.5 kmh SW 7.6 mph12.2 kmh 30.03 in1016.9 mb 0.00 in0.0 mm 0.00 in0.0 mm 0.00 in0.0 mm
05:10 AM 55.8°F13.2°C 53.5°F11.9°C 92% 3.6 mph SW5.8 kmh SW 7.6 mph12.2 kmh 30.03 in1016.9 mb 0.00 in0.0 mm 0.00 in0.0 mm 0.00 in0.0 mm
05:00 AM 55.8°F13.2°C 53.8°F12.1°C 93% 3.3 mph SW5.3 kmh SW 8.3 mph13.4 kmh 30.02 in1016.6 mb 0.00 in0.0 mm 0.00 in0.0 mm 0.00 in0.0 mm
04:50 AM 55.6°F13.1°C 53.3°F11.8°C 92% 3.1 mph SW5.0 kmh SW 6.0 mph9.7 kmh 30.03 in1016.9 mb 0.00 in0.0 mm 0.00 in0.0 mm 0.00 in0.0 mm
04:40 AM 55.6°F13.1°C 53.3°F11.8°C 92% 3.7 mph WSW6.0 kmh WSW 6.9 mph11.1 kmh 30.03 in1016.9 mb 0.00 in0.0 mm 0.00 in0.0 mm 0.00 in0.0 mm
04:30 AM 55.8°F13.2°C 53.8°F12.1°C 93% 4.0 mph SW6.4 kmh SW 7.6 mph12.2 kmh 30.03 in1016.9 mb 0.00 in0.0 mm 0.00 in0.0 mm 0.00 in0.0 mm
04:20 AM 55.6°F13.1°C 53.6°F12.0°C 93% 3.8 mph SW6.1 kmh SW 9.2 mph14.8 kmh 30.03 in1016.9 mb 0.00 in0.0 mm 0.00 in0.0 mm 0.00 in0.0 mm
04:10 AM 55.4°F13.0°C 53.4°F11.9°C 93% 3.4 mph WSW5.5 kmh WSW 7.6 mph12.2 kmh 30.03 in1016.9 mb 0.00 in0.0 mm 0.00 in0.0 mm 0.00 in0.0 mm
04:00 AM 55.2°F12.9°C 52.6°F11.4°C 91% 2.2 mph SW3.5 kmh SW 6.0 mph9.7 kmh 30.03 in1016.9 mb 0.00 in0.0 mm 0.00 in0.0 mm 0.00 in0.0 mm
03:50 AM 55.2°F12.9°C 52.6°F11.4°C 91% 2.5 mph SW4.0 kmh SW 5.4 mph8.7 kmh 30.03 in1016.9 mb 0.00 in0.0 mm 0.00 in0.0 mm 0.00 in0.0 mm
03:40 AM 55.2°F12.9°C 52.6°F11.4°C 91% 2.6 mph W4.2 kmh W 5.4 mph8.7 kmh 30.03 in1016.9 mb 0.00 in0.0 mm 0.00 in0.0 mm 0.00 in0.0 mm
03:30 AM 55.0°F12.8°C 52.2°F11.2°C 90% 3.1 mph WSW5.0 kmh WSW 6.0 mph9.7 kmh 30.03 in1016.9 mb 0.00 in0.0 mm 0.00 in0.0 mm 0.00 in0.0 mm
03:20 AM 55.2°F12.9°C 52.3°F11.3°C 90% 3.6 mph WSW5.8 kmh WSW 8.3 mph13.4 kmh 30.03 in1016.9 mb 0.00 in0.0 mm 0.00 in0.0 mm 0.00 in0.0 mm
03:10 AM 55.0°F12.8°C 52.2°F11.2°C 90% 3.3 mph WSW5.3 kmh WSW 7.6 mph12.2 kmh 30.03 in1016.9 mb 0.00 in0.0 mm 0.00 in0.0 mm 0.00 in0.0 mm
03:00 AM 55.0°F12.8°C 52.2°F11.2°C 90% 4.0 mph SW6.4 kmh SW 7.6 mph12.2 kmh 30.03 in1016.9 mb 0.00 in0.0 mm 0.00 in0.0 mm 0.00 in0.0 mm
02:50 AM 55.0°F12.8°C 52.5°F11.4°C 91% 4.1 mph WSW6.6 kmh WSW 8.3 mph13.4 kmh 30.03 in1016.9 mb 0.00 in0.0 mm 0.00 in0.0 mm 0.00 in0.0 mm
02:40 AM 55.0°F12.8°C 52.5°F11.4°C 91% 4.4 mph WSW7.1 kmh WSW 7.6 mph12.2 kmh 30.04 in1017.3 mb 0.00 in0.0 mm 0.00 in0.0 mm 0.00 in0.0 mm
02:30 AM 55.0°F12.8°C 52.5°F11.4°C 91% 3.4 mph WSW5.5 kmh WSW 6.9 mph11.1 kmh 30.04 in1017.3 mb 0.00 in0.0 mm 0.00 in0.0 mm 0.00 in0.0 mm
02:20 AM 55.2°F12.9°C 52.3°F11.3°C 90% 3.1 mph WSW5.0 kmh WSW 6.9 mph11.1 kmh 30.04 in1017.3 mb 0.00 in0.0 mm 0.00 in0.0 mm 0.00 in0.0 mm
02:10 AM 55.6°F13.1°C 52.7°F11.5°C 90% 4.5 mph WSW7.2 kmh WSW 9.8 mph15.8 kmh 30.05 in1017.6 mb 0.00 in0.0 mm 0.00 in0.0 mm 0.00 in0.0 mm
02:00 AM 55.8°F13.2°C 52.3°F11.3°C 88% 4.5 mph SW7.2 kmh SW 9.8 mph15.8 kmh 30.05 in1017.6 mb 0.00 in0.0 mm 0.00 in0.0 mm 0.00 in0.0 mm
01:50 AM 55.6°F13.1°C 51.5°F10.8°C 86% 5.1 mph WSW8.2 kmh WSW 9.8 mph15.8 kmh 30.05 in1017.6 mb 0.00 in0.0 mm 0.00 in0.0 mm 0.00 in0.0 mm
01:40 AM 55.8°F13.2°C 51.6°F10.9°C 86% 4.0 mph WSW6.4 kmh WSW 7.6 mph12.2 kmh 30.06 in1017.9 mb 0.00 in0.0 mm 0.00 in0.0 mm 0.00 in0.0 mm
01:30 AM 56.3°F13.5°C 52.2°F11.2°C 86% 4.1 mph WNW6.6 kmh WNW 8.3 mph13.4 kmh 30.06 in1017.9 mb 0.00 in0.0 mm 0.00 in0.0 mm 0.00 in0.0 mm
01:20 AM 56.1°F13.4°C 52.0°F11.1°C 86% 4.5 mph WSW7.2 kmh WSW 7.6 mph12.2 kmh 30.06 in1017.9 mb 0.00 in0.0 mm 0.00 in0.0 mm 0.00 in0.0 mm
01:10 AM 55.9°F13.3°C 51.5°F10.8°C 85% 4.4 mph WSW7.1 kmh WSW 9.8 mph15.8 kmh 30.06 in1017.9 mb 0.00 in0.0 mm 0.00 in0.0 mm 0.00 in0.0 mm
01:00 AM 55.8°F13.2°C 51.3°F10.7°C 85% 4.1 mph WSW6.6 kmh WSW 8.3 mph13.4 kmh 30.06 in1017.9 mb 0.00 in0.0 mm 0.00 in0.0 mm 0.00 in0.0 mm
12:50 AM 55.8°F13.2°C 51.3°F10.7°C 85% 3.9 mph W6.3 kmh W 9.2 mph14.8 kmh 30.06 in1017.9 mb 0.00 in0.0 mm 0.00 in0.0 mm 0.00 in0.0 mm
12:40 AM 55.8°F13.2°C 51.3°F10.7°C 85% 4.1 mph SW6.6 kmh SW 8.3 mph13.4 kmh 30.07 in1018.3 mb 0.00 in0.0 mm 0.00 in0.0 mm 0.00 in0.0 mm
12:30 AM 55.9°F13.3°C 51.5°F10.8°C 85% 4.5 mph SW7.2 kmh SW 9.8 mph15.8 kmh 30.07 in1018.3 mb 0.00 in0.0 mm 0.00 in0.0 mm 0.00 in0.0 mm
12:20 AM 55.8°F13.2°C 51.6°F10.9°C 86% 4.0 mph WSW6.4 kmh WSW 7.6 mph12.2 kmh 30.07 in1018.3 mb 0.00 in0.0 mm 0.00 in0.0 mm 0.00 in0.0 mm
12:10 AM 55.4°F13.0°C 51.6°F10.9°C 87% 3.8 mph SW6.1 kmh SW 6.9 mph11.1 kmh 30.08 in1018.6 mb 0.00 in0.0 mm 0.00 in0.0 mm 0.00 in0.0 mm
12:00 AM 55.0°F12.8°C 51.6°F10.9°C 88% 4.1 mph WSW6.6 kmh WSW 6.9 mph11.1 kmh 30.08 in1018.6 mb 0.00 in0.0 mm 0.00 in0.0 mm 0.00 in0.0 mm